createdAt,value
2019-04-06T00:00:08.898Z,100673.84
2019-04-06T00:02:39.952Z,100669.88
2019-04-06T00:05:09.459Z,100663.52
2019-04-06T00:07:39.304Z,100661.42
2019-04-06T00:10:08.725Z,100669.30
2019-04-06T00:12:37.958Z,100668.70
2019-04-06T00:15:08.076Z,100672.52
2019-04-06T00:17:37.770Z,100674.44
2019-04-06T00:20:09.742Z,100668.95
2019-04-06T00:22:39.004Z,100672.02
2019-04-06T00:25:08.450Z,100681.83
2019-04-06T00:27:37.681Z,100684.53
2019-04-06T00:30:08.247Z,100683.86
2019-04-06T00:32:44.103Z,100683.38
2019-04-06T00:35:13.647Z,100685.56
2019-04-06T00:37:42.914Z,100686.84
2019-04-06T00:40:12.345Z,100692.50
2019-04-06T00:42:41.899Z,100690.12
2019-04-06T00:45:11.412Z,100684.37
2019-04-06T00:47:41.046Z,100680.64
2019-04-06T00:50:10.344Z,100675.24
2019-04-06T00:52:39.930Z,100673.53
2019-04-06T00:55:09.622Z,100674.45
2019-04-06T00:57:39.247Z,100678.50
2019-04-06T01:00:08.891Z,100678.34
2019-04-06T01:02:38.579Z,100681.98
2019-04-06T01:05:07.911Z,100675.59
2019-04-06T01:07:37.237Z,100674.19
2019-04-06T01:10:07.468Z,100674.22
2019-04-06T01:12:37.147Z,100676.98
2019-04-06T01:15:07.039Z,100678.42
2019-04-06T01:17:36.268Z,100677.31
2019-04-06T01:20:06.609Z,100675.80
2019-04-06T01:22:35.863Z,100671.55
2019-04-06T01:25:07.547Z,100673.45
2019-04-06T01:27:37.124Z,100671.48
2019-04-06T01:30:07.816Z,100676.23
2019-04-06T01:32:37.229Z,100676.34
2019-04-06T01:35:06.681Z,100671.40
2019-04-06T01:37:35.999Z,100672.91
2019-04-06T01:40:06.793Z,100667.33
2019-04-06T01:42:36.143Z,100670.22
2019-04-06T01:45:07.225Z,100669.42
2019-04-06T01:47:36.474Z,100670.97
2019-04-06T01:50:06.273Z,100672.16
2019-04-06T01:52:35.897Z,100669.85
2019-04-06T01:55:06.134Z,100669.02
2019-04-06T01:57:35.440Z,100669.35
2019-04-06T02:00:08.751Z,100668.33
2019-04-06T02:02:39.779Z,100666.02
2019-04-06T02:05:09.367Z,100666.02
2019-04-06T02:07:39.226Z,100661.50
2019-04-06T02:10:08.574Z,100663.76
2019-04-06T02:12:37.841Z,100656.98
2019-04-06T02:15:07.919Z,100653.69
2019-04-06T02:17:37.448Z,100654.06
2019-04-06T02:20:07.166Z,100650.94
2019-04-06T02:22:37.211Z,100653.19
2019-04-06T02:25:09.471Z,100656.12
2019-04-06T02:27:39.368Z,100657.14
2019-04-06T02:30:16.105Z,100657.20
2019-04-06T02:32:47.077Z,100658.64
2019-04-06T02:35:21.360Z,100655.80
2019-04-06T02:37:52.519Z,100653.06
2019-04-06T02:40:26.323Z,100656.06
2019-04-06T02:43:00.215Z,100654.28
2019-04-06T02:45:29.510Z,100644.28
2019-04-06T02:47:58.758Z,100638.19
2019-04-06T02:50:28.041Z,100643.67
2019-04-06T02:52:57.234Z,100639.22
2019-04-06T02:55:26.456Z,100641.11
2019-04-06T02:57:55.762Z,100639.28
2019-04-06T03:00:24.968Z,100640.47
2019-04-06T03:02:54.210Z,100638.97
2019-04-06T03:05:23.464Z,100641.08
2019-04-06T03:07:52.653Z,100640.92
2019-04-06T03:10:21.859Z,100643.39
2019-04-06T03:12:51.114Z,100639.98
2019-04-06T03:15:20.342Z,100641.61
2019-04-06T03:17:49.805Z,100643.37
2019-04-06T03:20:19.208Z,100646.17
2019-04-06T03:22:48.616Z,100645.80
2019-04-06T03:25:17.863Z,100643.13
2019-04-06T03:27:47.057Z,100645.25
2019-04-06T03:30:16.590Z,100635.25
2019-04-06T03:32:45.830Z,100634.93
2019-04-06T03:35:15.377Z,100632.12
2019-04-06T03:37:44.706Z,100639.06
2019-04-06T03:40:14.131Z,100630.14
2019-04-06T03:42:43.521Z,100630.34
2019-04-06T03:45:12.803Z,100636.38
2019-04-06T03:47:42.078Z,100632.80
2019-04-06T03:50:11.295Z,100636.42
2019-04-06T03:52:40.506Z,100638.79
2019-04-06T03:55:09.757Z,100639.30
2019-04-06T03:57:38.995Z,100633.69
2019-04-06T04:00:08.305Z,100631.64
2019-04-06T04:02:37.763Z,100636.36
2019-04-06T04:05:07.363Z,100634.75
2019-04-06T04:07:36.760Z,100639.11
2019-04-06T04:10:09.390Z,100636.87
2019-04-06T04:12:38.602Z,100633.59
2019-04-06T04:15:08.105Z,100633.55
2019-04-06T04:17:37.435Z,100634.73
2019-04-06T04:20:07.690Z,100634.69
2019-04-06T04:22:36.913Z,100638.91
2019-04-06T04:25:06.732Z,100642.27
2019-04-06T04:27:36.022Z,100642.11
2019-04-06T04:30:07.765Z,100635.91
2019-04-06T04:32:37.022Z,100642.00
2019-04-06T04:35:06.642Z,100641.03
2019-04-06T04:37:35.831Z,100647.01
2019-04-06T04:40:05.209Z,100640.87
2019-04-06T04:42:34.415Z,100642.42
2019-04-06T04:45:03.748Z,100643.87
2019-04-06T04:47:32.993Z,100646.80
2019-04-06T04:50:02.156Z,100647.66
2019-04-06T04:52:31.379Z,100649.42
2019-04-06T04:55:00.567Z,100653.56
2019-04-06T04:57:39.625Z,100655.55
2019-04-06T05:00:00.738Z,100655.94
2019-04-06T05:02:30.002Z,100654.20
2019-04-06T05:04:59.261Z,100652.66
2019-04-06T05:07:28.460Z,100657.11
2019-04-06T05:09:57.696Z,100650.91
2019-04-06T05:12:26.929Z,100651.58
2019-04-06T05:15:01.401Z,100653.27
2019-04-06T05:17:30.877Z,100656.92
2019-04-06T05:20:00.173Z,100658.52
2019-04-06T05:22:29.331Z,100657.92
2019-04-06T05:24:58.782Z,100666.98
2019-04-06T05:27:28.087Z,100661.70
2019-04-06T05:29:57.314Z,100661.97
2019-04-06T05:32:26.525Z,100666.00
2019-04-06T05:34:57.999Z,100663.84
2019-04-06T05:37:26.637Z,100663.67
2019-04-06T05:39:55.868Z,100661.21
2019-04-06T05:42:25.199Z,100666.85
2019-04-06T05:44:54.570Z,100667.12
2019-04-06T05:47:23.927Z,100666.09
2019-04-06T05:49:53.169Z,100662.27
2019-04-06T05:52:22.626Z,100668.88
2019-04-06T05:54:51.904Z,100667.49
2019-04-06T05:57:21.096Z,100667.98
2019-04-06T05:59:50.335Z,100670.83
2019-04-06T06:02:19.564Z,100673.20
2019-04-06T06:04:48.821Z,100673.63
2019-04-06T06:07:18.095Z,100681.16
2019-04-06T06:09:47.739Z,100683.84
2019-04-06T06:12:17.014Z,100684.75
2019-04-06T06:14:46.271Z,100682.60
2019-04-06T06:17:15.495Z,100691.27
2019-04-06T06:19:44.693Z,100691.00
2019-04-06T06:22:14.171Z,100694.55
2019-04-06T06:24:43.400Z,100694.17
2019-04-06T06:27:12.582Z,100693.97
2019-04-06T06:29:41.873Z,100699.02
2019-04-06T06:32:11.073Z,100692.41
2019-04-06T06:34:40.391Z,100694.66
2019-04-06T06:37:09.709Z,100694.72
2019-04-06T06:39:38.915Z,100695.09
2019-04-06T06:42:08.340Z,100696.06
2019-04-06T06:44:37.736Z,100698.05
2019-04-06T06:47:06.949Z,100690.98
2019-04-06T06:49:36.687Z,100687.18
2019-04-06T06:52:06.464Z,100686.52
2019-04-06T06:54:36.022Z,100691.14
2019-04-06T06:57:05.499Z,100694.14
2019-04-06T06:59:34.985Z,100695.59
2019-04-06T07:02:04.853Z,100693.75
2019-04-06T07:04:34.757Z,100689.27
2019-04-06T07:07:04.070Z,100689.55
2019-04-06T07:09:33.320Z,100696.05
2019-04-06T07:12:02.656Z,100689.20
2019-04-06T07:14:31.980Z,100691.58
2019-04-06T07:17:02.244Z,100694.63
2019-04-06T07:19:31.473Z,100695.08
2019-04-06T07:22:00.913Z,100698.72
2019-04-06T07:24:30.445Z,100702.14
2019-04-06T07:26:59.963Z,100699.27
2019-04-06T07:29:29.185Z,100697.61
2019-04-06T07:31:58.558Z,100699.26
2019-04-06T07:34:27.881Z,100697.42
2019-04-06T07:36:57.155Z,100693.55
2019-04-06T07:39:26.356Z,100695.88
2019-04-06T07:41:55.600Z,100697.34
2019-04-06T07:44:24.877Z,100690.91
2019-04-06T07:46:54.127Z,100698.14
2019-04-06T07:49:23.411Z,100695.18
2019-04-06T07:51:52.644Z,100696.09
2019-04-06T07:54:21.846Z,100694.80
2019-04-06T07:56:51.175Z,100692.77
2019-04-06T07:59:20.324Z,100695.09
2019-04-06T08:01:49.792Z,100695.53
2019-04-06T08:04:19.300Z,100695.58
2019-04-06T08:06:48.473Z,100694.58
2019-04-06T08:09:17.711Z,100695.96
2019-04-06T08:11:46.918Z,100695.33
2019-04-06T08:14:16.141Z,100695.95
2019-04-06T08:16:45.405Z,100693.91
2019-04-06T08:19:14.658Z,100691.53
2019-04-06T08:21:43.828Z,100694.07
2019-04-06T08:24:13.127Z,100691.93
2019-04-06T08:26:42.421Z,100683.95
2019-04-06T08:29:11.636Z,100686.12
2019-04-06T08:31:40.862Z,100681.81
2019-04-06T08:34:10.026Z,100685.17
2019-04-06T08:36:39.235Z,100678.59
2019-04-06T08:39:09.295Z,100679.33
2019-04-06T08:41:38.752Z,100681.38
2019-04-06T08:44:08.009Z,100679.76
2019-04-06T08:46:37.271Z,100685.47
2019-04-06T08:49:06.531Z,100687.50
2019-04-06T08:51:35.739Z,100684.66
2019-04-06T08:54:04.940Z,100685.05
2019-04-06T08:56:34.261Z,100683.30
2019-04-06T08:59:11.551Z,100689.12
2019-04-06T09:01:34.452Z,100683.20
2019-04-06T09:04:03.669Z,100688.61
2019-04-06T09:06:32.895Z,100678.03
2019-04-06T09:09:02.159Z,100680.44
2019-04-06T09:11:31.379Z,100672.27
2019-04-06T09:14:00.616Z,100677.62
2019-04-06T09:16:29.830Z,100676.70
2019-04-06T09:18:59.196Z,100671.14
2019-04-06T09:21:28.708Z,100673.58
2019-04-06T09:23:58.722Z,100666.18
2019-04-06T09:26:27.891Z,100666.41
2019-04-06T09:28:59.465Z,100662.72
2019-04-06T09:31:28.119Z,100653.50
2019-04-06T09:33:57.407Z,100657.09
2019-04-06T09:36:26.874Z,100654.91
2019-04-06T09:38:56.328Z,100655.28
2019-04-06T09:41:26.334Z,100654.59
2019-04-06T09:43:55.971Z,100656.37
2019-04-06T09:46:35.898Z,100655.74
2019-04-06T09:49:09.488Z,100661.66
2019-04-06T09:51:43.020Z,100652.89
2019-04-06T09:54:20.031Z,100654.53
2019-04-06T09:56:56.658Z,100645.14
2019-04-06T09:59:39.511Z,100652.70
2019-04-06T10:02:10.532Z,100647.81
2019-04-06T10:04:57.477Z,100645.34
2019-04-06T10:07:40.078Z,100635.30
2019-04-06T10:10:11.003Z,100633.91
2019-04-06T10:12:47.690Z,100633.87
2019-04-06T10:15:36.646Z,100633.86
2019-04-06T10:18:07.477Z,100628.88
2019-04-06T10:20:44.045Z,100627.50
2019-04-06T10:23:32.993Z,100626.98
2019-04-06T10:26:09.252Z,100627.60
2019-04-06T10:28:43.050Z,100623.40
2019-04-06T10:31:19.406Z,100625.87
2019-04-06T10:33:56.368Z,100624.69
2019-04-06T10:36:27.321Z,100622.52
2019-04-06T10:39:00.635Z,100628.72
2019-04-06T10:41:31.697Z,100628.16
2019-04-06T10:44:02.867Z,100628.00
2019-04-06T10:46:33.778Z,100630.44
2019-04-06T10:49:07.977Z,100629.23
2019-04-06T10:51:44.896Z,100625.91
2019-04-06T10:54:18.715Z,100625.70
2019-04-06T10:56:49.613Z,100622.14
2019-04-06T10:59:20.537Z,100620.95
2019-04-06T11:02:03.569Z,100622.30
2019-04-06T11:04:40.109Z,100621.94
2019-04-06T11:07:26.821Z,100616.38
2019-04-06T11:10:15.596Z,100607.72
2019-04-06T11:12:49.283Z,100607.27
2019-04-06T11:15:32.233Z,100606.31
2019-04-06T11:18:18.700Z,100610.27
2019-04-06T11:21:04.689Z,100606.13
2019-04-06T11:23:51.557Z,100606.25
2019-04-06T11:26:23.016Z,100604.22
2019-04-06T11:29:09.819Z,100601.61
2019-04-06T11:31:43.059Z,100606.47
2019-04-06T11:34:25.655Z,100599.89
2019-04-06T11:36:59.178Z,100604.30
2019-04-06T11:39:38.835Z,100606.48
2019-04-06T11:42:09.709Z,100599.45
2019-04-06T11:44:46.294Z,100598.61
2019-04-06T11:47:33.346Z,100603.47
2019-04-06T11:50:12.814Z,100597.86
2019-04-06T11:52:46.452Z,100595.87
2019-04-06T11:55:17.265Z,100593.16
2019-04-06T11:57:54.062Z,100590.69
2019-04-06T12:00:28.157Z,100591.59
2019-04-06T12:02:59.331Z,100593.56
2019-04-06T12:05:35.812Z,100587.69
2019-04-06T12:08:06.963Z,100586.89
2019-04-06T12:10:40.235Z,100588.00
2019-04-06T12:13:13.831Z,100581.12
2019-04-06T12:15:47.373Z,100578.27
2019-04-06T12:18:20.958Z,100578.70
2019-04-06T12:20:54.321Z,100575.55
2019-04-06T12:23:33.870Z,100575.81
2019-04-06T12:26:19.768Z,100581.42
2019-04-06T12:28:53.254Z,100573.84
2019-04-06T12:31:24.086Z,100573.88
2019-04-06T12:33:58.010Z,100572.23
2019-04-06T12:36:34.554Z,100566.58
2019-04-06T12:39:16.223Z,100572.13
2019-04-06T12:42:02.986Z,100569.97
2019-04-06T12:44:33.825Z,100564.12
2019-04-06T12:47:04.666Z,100560.06
2019-04-06T12:49:44.822Z,100560.30
2019-04-06T12:52:27.462Z,100560.74
2019-04-06T12:54:58.624Z,100562.22
2019-04-06T12:57:35.295Z,100559.80
2019-04-06T13:00:20.268Z,100558.04
2019-04-06T13:02:54.373Z,100550.52
2019-04-06T13:05:41.220Z,100549.31
2019-04-06T13:08:17.762Z,100544.31
2019-04-06T13:10:55.949Z,100538.00
2019-04-06T13:13:27.130Z,100539.14
2019-04-06T13:15:58.317Z,100532.09
2019-04-06T13:18:34.599Z,100530.97
2019-04-06T13:21:05.581Z,100531.72
2019-04-06T13:23:41.973Z,100533.54
2019-04-06T13:26:15.469Z,100531.95
2019-04-06T13:28:49.349Z,100533.95
2019-04-06T13:31:20.159Z,100529.31
2019-04-06T13:33:51.125Z,100528.67
2019-04-06T13:36:22.067Z,100526.17
2019-04-06T13:38:53.293Z,100526.52
2019-04-06T13:41:40.210Z,100518.52
2019-04-06T13:44:13.844Z,100516.08
2019-04-06T13:46:59.929Z,100519.64
2019-04-06T13:49:36.832Z,100520.81
2019-04-06T13:52:23.924Z,100523.36
2019-04-06T13:55:10.998Z,100518.20
2019-04-06T13:57:45.098Z,100512.63
2019-04-06T14:00:16.195Z,100512.70
2019-04-06T14:02:47.167Z,100511.59
2019-04-06T14:05:34.319Z,100514.19
2019-04-06T14:08:21.798Z,100515.47
2019-04-06T14:11:08.689Z,100521.41
2019-04-06T14:13:48.113Z,100523.97
2019-04-06T14:16:31.012Z,100518.20
2019-04-06T14:19:10.502Z,100520.80
2019-04-06T14:21:56.473Z,100514.64
2019-04-06T14:24:33.359Z,100515.79
2019-04-06T14:27:07.518Z,100516.79
2019-04-06T14:29:38.364Z,100506.22
2019-04-06T14:32:27.233Z,100503.89
2019-04-06T14:35:14.198Z,100500.75
2019-04-06T14:37:51.087Z,100499.75
2019-04-06T14:40:24.847Z,100502.08
2019-04-06T14:43:11.824Z,100496.29
2019-04-06T14:46:01.022Z,100504.06
2019-04-06T14:48:48.014Z,100500.22
2019-04-06T14:51:24.872Z,100504.78
2019-04-06T14:53:58.860Z,100499.88
2019-04-06T14:56:29.942Z,100503.54
2019-04-06T14:59:00.805Z,100506.16
2019-04-06T15:01:45.312Z,100503.00
2019-04-06T15:04:16.623Z,100497.77
2019-04-06T15:06:47.671Z,100499.52
2019-04-06T15:09:30.443Z,100503.89
2019-04-06T15:12:01.296Z,100502.53
2019-04-06T15:14:34.918Z,100506.64
2019-04-06T15:17:18.008Z,100510.89
2019-04-06T15:19:49.175Z,100513.81
2019-04-06T15:22:22.654Z,100511.34
2019-04-06T15:25:11.317Z,100494.73
2019-04-06T15:27:58.391Z,100496.27
2019-04-06T15:30:44.655Z,100497.77
2019-04-06T15:33:15.566Z,100498.11
2019-04-06T15:35:46.509Z,100494.42
2019-04-06T15:38:20.286Z,100496.94
2019-04-06T15:40:57.262Z,100491.17
2019-04-06T15:43:32.818Z,100493.60
2019-04-06T15:46:15.433Z,100490.19
2019-04-06T15:48:52.228Z,100492.47
2019-04-06T15:51:35.375Z,100501.89
2019-04-06T15:54:22.220Z,100496.98
2019-04-06T15:56:53.861Z,100497.48
2019-04-06T15:59:27.676Z,100502.20
2019-04-06T16:02:07.265Z,100493.14
2019-04-06T16:04:38.104Z,100500.33
2019-04-06T16:07:31.459Z,100500.78
2019-04-06T16:10:11.431Z,100498.28
2019-04-06T16:12:47.907Z,100496.50
2019-04-06T16:15:21.763Z,100492.81
2019-04-06T16:17:55.316Z,100499.06
2019-04-06T16:20:41.125Z,100499.34
2019-04-06T16:23:20.673Z,100501.95
2019-04-06T16:25:54.274Z,100492.35
2019-04-06T16:28:25.309Z,100495.68
2019-04-06T16:31:08.090Z,100493.11
2019-04-06T16:33:41.741Z,100491.03
2019-04-06T16:36:15.435Z,100489.29
2019-04-06T16:38:52.460Z,100489.19
2019-04-06T16:41:32.455Z,100489.04
2019-04-06T16:44:03.436Z,100492.35
2019-04-06T16:46:34.262Z,100494.48
2019-04-06T16:49:21.267Z,100494.03
2019-04-06T16:52:08.744Z,100495.42
2019-04-06T16:54:40.064Z,100500.46
2019-04-06T16:57:13.371Z,100503.98
2019-04-06T17:00:00.356Z,100500.78
2019-04-06T17:02:31.691Z,100503.64
2019-04-06T17:05:02.510Z,100502.02
2019-04-06T17:07:39.063Z,100504.94
2019-04-06T17:10:15.922Z,100504.98
2019-04-06T17:12:46.812Z,100508.52
2019-04-06T17:15:17.768Z,100504.38
2019-04-06T17:17:51.291Z,100506.33
2019-04-06T17:20:30.784Z,100509.09
2019-04-06T17:23:14.252Z,100509.78
2019-04-06T17:25:45.082Z,100516.75
2019-04-06T17:28:18.700Z,100524.24
2019-04-06T17:31:05.092Z,100520.66
2019-04-06T17:33:47.489Z,100522.92
2019-04-06T17:36:21.303Z,100523.95
2019-04-06T17:38:52.247Z,100527.59
2019-04-06T17:41:26.043Z,100535.37
2019-04-06T17:44:02.776Z,100538.06
2019-04-06T17:46:49.361Z,100532.61
2019-04-06T17:49:32.587Z,100536.11
2019-04-06T17:52:06.325Z,100541.09
2019-04-06T17:54:40.122Z,100541.71
2019-04-06T17:57:25.497Z,100536.10
2019-04-06T18:00:12.425Z,100532.53
2019-04-06T18:02:50.920Z,100539.16
2019-04-06T18:05:21.896Z,100544.79
2019-04-06T18:08:04.922Z,100550.08
2019-04-06T18:10:48.066Z,100550.03
2019-04-06T18:13:28.517Z,100551.72
2019-04-06T18:15:57.883Z,100553.15
2019-04-06T18:18:27.012Z,100549.75
2019-04-06T18:20:57.230Z,100557.00
2019-04-06T18:23:26.411Z,100561.65
2019-04-06T18:25:55.651Z,100561.76
2019-04-06T18:28:25.301Z,100562.37
2019-04-06T18:30:59.296Z,100568.12
2019-04-06T18:33:30.028Z,100564.24
2019-04-06T18:35:59.533Z,100564.84
2019-04-06T18:38:33.227Z,100574.12
2019-04-06T18:41:02.396Z,100574.22
2019-04-06T18:43:31.694Z,100576.95
2019-04-06T18:46:01.223Z,100578.28
2019-04-06T18:48:30.546Z,100583.13
2019-04-06T18:50:59.802Z,100591.16
2019-04-06T18:53:29.007Z,100587.96
2019-04-06T18:55:58.503Z,100590.59
2019-04-06T18:58:27.828Z,100592.45
2019-04-06T19:00:58.850Z,100593.21
2019-04-06T19:03:28.153Z,100592.84
2019-04-06T19:05:57.961Z,100596.73
2019-04-06T19:08:27.342Z,100596.41
2019-04-06T19:10:56.771Z,100600.52
2019-04-06T19:13:26.093Z,100603.65
2019-04-06T19:15:55.825Z,100601.33
2019-04-06T19:18:25.086Z,100606.23
2019-04-06T19:20:54.941Z,100602.89
2019-04-06T19:23:24.464Z,100607.52
2019-04-06T19:25:53.835Z,100606.07
2019-04-06T19:28:23.192Z,100606.66
2019-04-06T19:30:52.489Z,100611.30
2019-04-06T19:33:24.983Z,100608.78
2019-04-06T19:35:58.796Z,100611.06
2019-04-06T19:38:28.245Z,100612.02
2019-04-06T19:40:57.648Z,100614.43
2019-04-06T19:43:28.750Z,100618.02
2019-04-06T19:45:58.113Z,100619.98
2019-04-06T19:48:27.302Z,100621.66
2019-04-06T19:51:00.087Z,100619.20
2019-04-06T19:53:31.770Z,100616.73
2019-04-06T19:56:02.127Z,100624.44
2019-04-06T19:58:31.409Z,100618.30
2019-04-06T20:01:04.308Z,100619.64
2019-04-06T20:03:37.131Z,100623.38
2019-04-06T20:06:04.968Z,100620.59
2019-04-06T20:08:35.009Z,100621.58
2019-04-06T20:11:07.084Z,100616.55
2019-04-06T20:13:36.606Z,100617.58
2019-04-06T20:16:08.713Z,100620.09
2019-04-06T20:18:40.060Z,100609.51
2019-04-06T20:21:09.777Z,100613.21
2019-04-06T20:23:39.122Z,100613.77
2019-04-06T20:26:12.793Z,100612.72
2019-04-06T20:28:44.750Z,100614.09
2019-04-06T20:31:14.176Z,100619.30
2019-04-06T20:33:51.492Z,100612.16
2019-04-06T20:36:17.586Z,100610.73
2019-04-06T20:38:48.580Z,100613.86
2019-04-06T20:41:17.971Z,100613.49
2019-04-06T20:43:47.534Z,100613.70
2019-04-06T20:46:19.676Z,100610.28
2019-04-06T20:48:48.104Z,100614.10
2019-04-06T20:51:17.991Z,100613.22
2019-04-06T20:53:47.414Z,100615.45
2019-04-06T20:56:17.173Z,100618.23
2019-04-06T20:58:46.561Z,100611.59
2019-04-06T21:01:15.953Z,100615.91
2019-04-06T21:03:45.401Z,100615.26
2019-04-06T21:06:14.683Z,100616.16
2019-04-06T21:08:44.067Z,100619.59
2019-04-06T21:11:13.286Z,100620.34
2019-04-06T21:13:42.649Z,100619.81
2019-04-06T21:16:12.420Z,100615.22
2019-04-06T21:18:41.888Z,100616.61
2019-04-06T21:21:11.178Z,100618.34
2019-04-06T21:23:40.400Z,100619.67
2019-04-06T21:26:09.641Z,100618.62
2019-04-06T21:28:39.016Z,100618.85
2019-04-06T21:31:08.710Z,100621.42
2019-04-06T21:33:38.536Z,100618.05
2019-04-06T21:36:08.386Z,100617.36
2019-04-06T21:38:37.724Z,100612.95
2019-04-06T21:41:07.036Z,100614.29
2019-04-06T21:43:36.222Z,100614.22
2019-04-06T21:46:05.610Z,100612.76
2019-04-06T21:48:35.219Z,100614.75
2019-04-06T21:51:04.523Z,100614.52
2019-04-06T21:53:34.570Z,100616.34
2019-04-06T21:56:07.391Z,100614.73
2019-04-06T21:58:34.882Z,100612.61
2019-04-06T22:01:04.113Z,100611.75
2019-04-06T22:03:33.784Z,100608.22
2019-04-06T22:06:03.612Z,100611.88
2019-04-06T22:08:32.872Z,100609.69
2019-04-06T22:11:02.620Z,100610.03
2019-04-06T22:13:31.968Z,100610.89
2019-04-06T22:16:01.169Z,100609.14
2019-04-06T22:18:30.572Z,100610.25
2019-04-06T22:20:59.742Z,100608.51
2019-04-06T22:23:39.777Z,100605.47
2019-04-06T22:26:00.455Z,100608.61
2019-04-06T22:28:29.979Z,100609.05
2019-04-06T22:30:59.168Z,100598.49
2019-04-06T22:33:28.635Z,100594.52
2019-04-06T22:35:58.488Z,100597.53
2019-04-06T22:38:28.173Z,100589.85
2019-04-06T22:40:57.834Z,100588.38
2019-04-06T22:43:27.107Z,100588.09
2019-04-06T22:45:56.438Z,100585.45
2019-04-06T22:48:25.699Z,100585.29
2019-04-06T22:50:55.144Z,100580.74
2019-04-06T22:53:24.829Z,100582.38
2019-04-06T22:55:54.075Z,100582.67
2019-04-06T22:58:23.261Z,100578.30
2019-04-06T23:01:00.076Z,100579.20
2019-04-06T23:03:30.904Z,100585.33
2019-04-06T23:06:14.204Z,100583.22
2019-04-06T23:08:43.833Z,100576.17
2019-04-06T23:11:13.166Z,100577.03
2019-04-06T23:13:42.505Z,100576.63
2019-04-06T23:16:11.709Z,100578.08
2019-04-06T23:18:41.299Z,100575.81
2019-04-06T23:21:10.893Z,100577.35
2019-04-06T23:23:40.717Z,100572.69
2019-04-06T23:26:10.106Z,100581.42
2019-04-06T23:28:39.349Z,100574.61
2019-04-06T23:31:08.615Z,100575.69
2019-04-06T23:33:38.072Z,100571.19
2019-04-06T23:36:07.812Z,100567.78
2019-04-06T23:38:37.806Z,100572.90
2019-04-06T23:41:07.145Z,100570.34
2019-04-06T23:43:36.958Z,100568.80
2019-04-06T23:46:06.402Z,100565.39
2019-04-06T23:48:36.368Z,100563.48
2019-04-06T23:51:06.294Z,100563.17
2019-04-06T23:53:35.984Z,100565.31
2019-04-06T23:56:05.334Z,100562.56
2019-04-06T23:58:35.218Z,100558.30
